Time;durP1;ratioP1;P1;durP2;ratioP2;P2;SDS_P1;SDS_P2;PMS_P1;PMS_P2;Temp;Humidity;BMP_temperature;BMP_pressure;BME280_temperature;BME280_humidity;BME280_pressure;Samples;Min_cycle;Max_cycle;Signal;HPM_P1;HPM_P2
2023/04/06 00:01:02;;;;;;;17.53;8.53;;;;;;;0.10;100.00;96435.06;6182914;23;20005;-76
2023/04/06 00:03:27;;;;;;;14.27;8.83;;;;;;;-0.06;100.00;96437.75;6208409;23;20155;-76
2023/04/06 00:05:53;;;;;;;16.43;7.67;;;;;;;-0.06;100.00;96427.41;6184101;23;20439;-76
2023/04/06 00:08:21;;;;;;;12.20;8.10;;;;;;;0.02;100.00;96430.38;6234264;23;20364;-76
2023/04/06 00:10:47;;;;;;;13.63;7.20;;;;;;;0.08;100.00;96424.84;6208310;23;20488;-76
2023/04/06 00:13:12;;;;;;;16.70;8.37;;;;;;;-0.03;100.00;96417.72;6182609;23;20505;-76
2023/04/06 00:15:38;;;;;;;12.73;8.20;;;;;;;-0.05;100.00;96423.91;6210129;23;20083;-77
2023/04/06 00:18:05;;;;;;;11.53;7.73;;;;;;;-0.06;100.00;96419.66;6208642;23;20013;-77
2023/04/06 00:20:31;;;;;;;12.03;7.47;;;;;;;0.03;100.00;96413.91;6183553;23;20645;-76
2023/04/06 00:22:56;;;;;;;11.70;7.60;;;;;;;0.06;100.00;96415.50;6233690;23;20416;-76
2023/04/06 00:25:28;;;;;;;12.13;7.17;;;;;;;0.16;100.00;96407.09;6234472;23;20360;-76
2023/04/06 00:27:54;;;;;;;10.97;6.63;;;;;;;0.15;100.00;96417.56;6208652;23;20005;-76
2023/04/06 00:30:20;;;;;;;11.13;6.70;;;;;;;0.15;100.00;96408.03;6183189;23;20423;-76
2023/04/06 00:32:46;;;;;;;10.97;6.60;;;;;;;0.16;100.00;96409.69;6232808;23;20013;-76
2023/04/06 00:35:12;;;;;;;12.83;6.63;;;;;;;0.19;100.00;96406.09;6208769;23;20013;-76
2023/04/06 00:37:40;;;;;;;10.30;6.47;;;;;;;0.20;100.00;96408.59;6183423;23;20440;-76
2023/04/06 00:40:06;;;;;;;12.50;6.73;;;;;;;0.21;100.00;96410.25;6183600;23;20004;-76
2023/04/06 00:42:32;;;;;;;13.83;7.93;;;;;;;0.22;100.00;96404.16;6181622;23;20748;-76
2023/04/06 00:45:00;;;;;;;11.10;6.93;;;;;;;0.31;100.00;96400.19;6205310;23;20400;-76
2023/04/06 00:47:26;;;;;;;14.13;7.13;;;;;;;0.29;100.00;96401.22;6183660;23;20016;-76
2023/04/06 00:49:56;;;;;;;12.33;7.10;;;;;;;0.22;100.00;96403.31;6208505;23;20946;-76
2023/04/06 00:52:22;;;;;;;13.37;6.93;;;;;;;0.29;100.00;96406.38;6183562;23;20416;-77
2023/04/06 00:54:50;;;;;;;9.87;6.60;;;;;;;0.23;100.00;96403.25;6208946;23;20427;-77
2023/04/06 00:57:17;;;;;;;11.17;6.50;;;;;;;0.30;100.00;96393.34;6207336;23;20408;-76
2023/04/06 00:59:45;;;;;;;10.60;5.90;;;;;;;0.23;100.00;96399.81;6183185;23;20412;-77
2023/04/06 01:02:12;;;;;;;9.97;6.20;;;;;;;0.27;100.00;96401.31;6233635;23;20408;-77
2023/04/06 01:04:46;;;;;;;10.30;6.40;;;;;;;0.29;100.00;96396.03;6188274;23;20807;-76
2023/04/06 01:07:23;;;;;;;15.20;6.77;;;;;;;0.27;100.00;96398.72;6210868;23;20743;-76
2023/04/06 01:10:09;;;;;;;10.20;6.30;;;;;;;0.22;100.00;96391.22;6189926;23;20518;-76
2023/04/06 01:12:37;;;;;;;12.73;6.67;;;;;;;0.19;100.00;96395.75;6219561;23;20787;-76
2023/04/06 01:15:08;;;;;;;12.00;6.23;;;;;;;0.13;100.00;96396.09;6237228;23;20406;-76
2023/04/06 01:17:37;;;;;;;11.67;6.77;;;;;;;0.18;100.00;96389.75;6210511;23;20789;-77
2023/04/06 01:20:09;;;;;;;11.07;6.47;;;;;;;0.16;100.00;96381.25;6235554;23;20412;-76
2023/04/06 01:22:36;;;;;;;10.60;5.87;;;;;;;0.19;100.00;96386.22;6185556;23;20412;-76
2023/04/06 01:25:03;;;;;;;14.30;6.90;;;;;;;0.20;100.00;96379.28;6185749;23;20500;-77
2023/04/06 01:27:36;;;;;;;9.33;5.73;;;;;;;0.19;100.00;96375.88;6209997;23;20416;-76
2023/04/06 01:30:11;;;;;;;10.10;6.43;;;;;;;0.19;100.00;96373.31;6210496;23;20481;-76
2023/04/06 01:32:42;;;;;;;10.00;6.73;;;;;;;0.19;100.00;96375.06;6209389;23;20431;-76
2023/04/06 01:35:11;;;;;;;12.80;6.70;;;;;;;0.18;100.00;96374.22;6184548;23;21337;-76
2023/04/06 01:37:44;;;;;;;11.73;5.53;;;;;;;0.14;100.00;96366.75;6236470;23;20400;-76
2023/04/06 01:40:14;;;;;;;9.70;5.93;;;;;;;0.20;100.00;96362.06;6210630;23;20044;-76
2023/04/06 01:42:49;;;;;;;11.32;5.43;;;;;;;0.23;100.00;96361.88;6184906;23;20514;-76
2023/04/06 01:45:22;;;;;;;14.53;6.10;;;;;;;0.23;100.00;96356.69;6210899;23;20009;-76
2023/04/06 01:47:50;;;;;;;12.43;5.37;;;;;;;0.21;100.00;96355.94;6209975;23;20419;-76
2023/04/06 01:50:15;;;;;;;11.57;5.93;;;;;;;0.26;100.00;96353.06;6235010;23;20949;-76
2023/04/06 01:52:45;;;;;;;13.03;6.17;;;;;;;0.29;100.00;96354.66;6185133;23;20040;-76
2023/04/06 01:55:11;;;;;;;14.37;6.50;;;;;;;0.30;100.00;96348.53;6209491;23;20549;-76
2023/04/06 01:57:59;;;;;;;12.97;6.40;;;;;;;0.24;100.00;96352.34;6234646;23;20403;-76
2023/04/06 02:00:38;;;;;;;11.57;5.80;;;;;;;0.28;100.00;96347.81;6187780;23;20412;-76
2023/04/06 02:03:04;;;;;;;14.83;5.97;;;;;;;0.27;100.00;96349.59;6238252;23;20416;-77
2023/04/06 02:05:41;;;;;;;11.27;6.30;;;;;;;0.29;100.00;96349.47;6238423;23;20439;-77
2023/04/06 02:08:27;;;;;;;9.27;5.90;;;;;;;0.30;100.00;96357.13;6214410;23;20428;-77
2023/04/06 02:10:52;;;;;;;10.00;5.47;;;;;;;0.24;100.00;96354.94;6238299;23;20455;-77
2023/04/06 02:13:30;;;;;;;10.83;5.97;;;;;;;0.30;100.00;96349.38;6190002;23;20008;-77
2023/04/06 02:15:56;;;;;;;12.50;6.30;;;;;;;0.26;100.00;96347.91;6238228;23;20424;-77
2023/04/06 02:18:22;;;;;;;10.27;6.20;;;;;;;0.23;100.00;96345.50;6187800;23;20950;-77
2023/04/06 02:20:48;;;;;;;10.37;5.73;;;;;;;0.23;100.00;96345.50;6187656;23;20412;-77
2023/04/06 02:23:14;;;;;;;9.67;5.90;;;;;;;0.25;100.00;96348.84;6212314;23;20406;-77
2023/04/06 02:25:40;;;;;;;13.77;6.63;;;;;;;0.23;100.00;96342.91;6212762;23;20012;-77
2023/04/06 02:28:06;;;;;;;11.07;6.10;;;;;;;0.22;100.00;96344.66;6187230;23;20016;-77
2023/04/06 02:30:32;;;;;;;11.13;5.97;;;;;;;0.25;100.00;96340.25;6238145;23;20959;-77
2023/04/06 02:33:01;;;;;;;9.60;5.97;;;;;;;0.22;100.00;96336.09;6211545;23;20008;-77
2023/04/06 02:35:34;;;;;;;9.53;5.80;;;;;;;0.22;100.00;96339.50;6188957;23;20541;-77
2023/04/06 02:37:59;;;;;;;15.57;6.93;;;;;;;0.20;100.00;96340.50;6237341;23;20416;-77
2023/04/06 02:40:28;;;;;;;10.30;6.53;;;;;;;0.10;100.00;96339.41;6187405;23;20004;-77
2023/04/06 02:42:55;;;;;;;10.10;5.93;;;;;;;0.06;100.00;96343.94;6211501;23;20088;-77
2023/04/06 02:45:43;;;;;;;12.10;6.80;;;;;;;0.12;100.00;96338.41;6206341;23;20411;-77
2023/04/06 02:48:10;;;;;;;8.88;4.63;;;;;;;0.07;100.00;96335.28;6211874;23;20423;-77
2023/04/06 02:50:36;;;;;;;10.40;6.10;;;;;;;0.00;100.00;96336.56;6237399;23;20010;-77
2023/04/06 02:53:05;;;;;;;10.67;6.00;;;;;;;0.00;100.00;96333.97;6187966;23;20012;-77
2023/04/06 02:55:32;;;;;;;11.97;6.27;;;;;;;-0.02;100.00;96331.47;6212336;23;20950;-77
2023/04/06 02:57:57;;;;;;;10.07;6.40;;;;;;;-0.01;100.00;96329.72;6211657;23;20430;-77
2023/04/06 03:00:32;;;;;;;11.60;5.77;;;;;;;-0.03;100.00;96323.81;6213344;23;20008;-77
2023/04/06 03:02:58;;;;;;;9.87;6.03;;;;;;;-0.04;100.00;96329.91;6235535;23;20391;-77
2023/04/06 03:05:26;;;;;;;10.50;6.10;;;;;;;-0.07;100.00;96332.66;6210269;23;20437;-77
2023/04/06 03:07:51;;;;;;;12.43;5.83;;;;;;;-0.03;100.00;96334.16;6185007;23;20412;-76
2023/04/06 03:10:25;;;;;;;13.23;6.40;;;;;;;-0.08;100.00;96331.00;6234367;23;20011;-77
2023/04/06 03:12:51;;;;;;;11.10;5.43;;;;;;;-0.09;100.00;96329.34;6183582;23;20411;-77
2023/04/06 03:15:23;;;;;;;13.80;8.73;;;;;;;-0.11;100.00;96333.78;6185529;23;20020;-77
2023/04/06 03:17:53;;;;;;;13.40;7.40;;;;;;;-0.10;100.00;96336.28;6234693;23;20533;-76
2023/04/06 03:20:37;;;;;;;11.40;5.90;;;;;;;-0.13;100.00;96328.72;6187559;23;20426;-77
2023/04/06 03:23:03;;;;;;;11.30;6.97;;;;;;;-0.11;100.00;96326.84;6184260;23;20428;-76
2023/04/06 03:25:34;;;;;;;12.50;6.20;;;;;;;-0.13;100.00;96327.88;6184929;23;20502;-77
2023/04/06 03:28:05;;;;;;;14.37;6.53;;;;;;;-0.09;100.00;96334.53;6209881;23;20474;-77
2023/04/06 03:30:36;;;;;;;11.37;5.83;;;;;;;-0.10;100.00;96328.53;6208464;23;20427;-77
2023/04/06 03:33:05;;;;;;;11.67;6.57;;;;;;;-0.11;100.00;96336.34;6208415;23;20411;-77
2023/04/06 03:35:36;;;;;;;13.70;7.43;;;;;;;-0.14;100.00;96336.53;6209427;23;20497;-77
2023/04/06 03:38:25;;;;;;;11.93;6.87;;;;;;;-0.15;100.00;96325.38;6184742;23;20412;-76
2023/04/06 03:40:52;;;;;;;11.40;6.90;;;;;;;-0.16;100.00;96335.81;6184700;23;20823;-77
2023/04/06 03:43:24;;;;;;;9.90;6.70;;;;;;;-0.20;100.00;96334.31;6183927;23;20930;-77
2023/04/06 03:45:50;;;;;;;10.73;6.43;;;;;;;-0.19;100.00;96333.41;6183815;23;20420;-77
2023/04/06 03:48:16;;;;;;;12.53;6.80;;;;;;;-0.20;100.00;96335.16;6183942;23;21172;-77
2023/04/06 03:50:42;;;;;;;11.83;7.53;;;;;;;-0.22;100.00;96342.16;6209233;23;20020;-77
2023/04/06 03:53:08;;;;;;;11.60;6.60;;;;;;;-0.27;100.00;96341.59;6184545;23;20411;-77
2023/04/06 03:55:36;;;;;;;13.13;7.80;;;;;;;-0.32;100.00;96348.81;6234189;23;20032;-76
2023/04/06 03:58:02;;;;;;;11.50;7.60;;;;;;;-0.36;100.00;96340.41;6209260;23;20888;-77
2023/04/06 04:00:33;;;;;;;10.77;6.80;;;;;;;-0.38;100.00;96349.97;6211088;23;20391;-77
2023/04/06 04:03:00;;;;;;;12.27;6.87;;;;;;;-0.42;100.00;96347.69;6210036;23;20013;-76
2023/04/06 04:05:26;;;;;;;14.33;8.77;;;;;;;-0.40;100.00;96346.69;6208843;23;20411;-76
2023/04/06 04:07:52;;;;;;;13.77;7.43;;;;;;;-0.44;100.00;96344.34;6234525;23;20430;-77
2023/04/06 04:10:20;;;;;;;15.63;7.97;;;;;;;-0.49;100.00;96347.19;6235048;23;21078;-77
2023/04/06 04:12:45;;;;;;;16.37;7.30;;;;;;;-0.44;100.00;96354.66;6232638;23;20448;-77
2023/04/06 04:15:11;;;;;;;15.07;7.27;;;;;;;-0.44;100.00;96347.75;6184222;23;20016;-77
2023/04/06 04:17:37;;;;;;;13.37;7.40;;;;;;;-0.48;100.00;96348.84;6183779;23;20024;-77
2023/04/06 04:20:07;;;;;;;15.60;7.30;;;;;;;-0.39;100.00;96350.91;6183805;23;20471;-77
2023/04/06 04:22:33;;;;;;;13.53;7.53;;;;;;;-0.46;100.00;96357.34;6233796;23;20016;-77
2023/04/06 04:24:59;;;;;;;13.07;8.30;;;;;;;-0.46;100.00;96352.19;6210289;23;20399;-77
2023/04/06 04:27:25;;;;;;;19.80;9.60;;;;;;;-0.50;100.00;96356.69;6184303;23;20012;-77
2023/04/06 04:29:52;;;;;;;17.07;9.70;;;;;;;-0.55;100.00;96350.97;6209526;23;20731;-76
2023/04/06 04:32:17;;;;;;;15.80;7.60;;;;;;;-0.54;100.00;96357.81;6208253;23;20485;-77
2023/04/06 04:34:45;;;;;;;12.63;7.70;;;;;;;-0.52;100.00;96360.28;6208578;23;20017;-77
2023/04/06 04:37:20;;;;;;;11.13;7.10;;;;;;;-0.52;100.00;96365.47;6209272;23;20473;-77
2023/04/06 04:39:52;;;;;;;13.73;7.63;;;;;;;-0.58;100.00;96360.63;6235591;23;20477;-76
2023/04/06 04:42:18;;;;;;;14.57;8.00;;;;;;;-0.55;100.00;96360.47;6210066;23;20016;-77
2023/04/06 04:44:49;;;;;;;12.20;7.60;;;;;;;-0.58;100.00;96358.88;6210251;23;20008;-77
2023/04/06 04:47:27;;;;;;;16.30;7.40;;;;;;;-0.53;100.00;96356.06;6207214;23;20416;-76
2023/04/06 04:49:53;;;;;;;11.90;7.73;;;;;;;-0.57;100.00;96354.53;6209798;23;20419;-76
2023/04/06 04:52:24;;;;;;;14.70;8.03;;;;;;;-0.59;100.00;96361.56;6209956;23;20423;-77
2023/04/06 04:55:10;;;;;;;15.83;7.97;;;;;;;-0.56;100.00;96361.41;6211337;23;20432;-77
2023/04/06 04:57:39;;;;;;;14.70;8.13;;;;;;;-0.60;100.00;96370.25;6208512;23;20422;-77
2023/04/06 05:00:06;;;;;;;13.97;8.43;;;;;;;-0.57;100.00;96373.47;6235979;23;20032;-77
2023/04/06 05:02:33;;;;;;;13.83;8.27;;;;;;;-0.59;100.00;96371.91;6185366;23;20416;-77
2023/04/06 05:05:10;;;;;;;14.23;8.37;;;;;;;-0.59;100.00;96377.06;6236241;23;20415;-77
2023/04/06 05:07:39;;;;;;;17.37;9.00;;;;;;;-0.51;100.00;96377.44;6185444;23;20950;-77
2023/04/06 05:10:09;;;;;;;20.20;8.70;;;;;;;-0.50;100.00;96379.97;6210506;23;20446;-77
2023/04/06 05:12:44;;;;;;;16.57;8.50;;;;;;;-0.37;100.00;96380.09;6234540;23;20412;-77
2023/04/06 05:15:10;;;;;;;17.23;7.80;;;;;;;-0.33;100.00;96388.50;6210789;23;20419;-77
2023/04/06 05:17:37;;;;;;;13.40;8.33;;;;;;;-0.17;100.00;96384.06;6185841;23;20494;-77
2023/04/06 05:20:05;;;;;;;12.53;7.33;;;;;;;0.06;100.00;96385.28;6185607;23;20480;-77
2023/04/06 05:22:36;;;;;;;14.83;8.20;;;;;;;0.13;100.00;96383.19;6162824;23;20818;-77
2023/04/06 05:25:07;;;;;;;16.40;8.37;;;;;;;0.26;100.00;96380.69;6186821;23;20481;-77
2023/04/06 05:27:35;;;;;;;16.07;8.30;;;;;;;0.47;100.00;96382.00;6235779;23;20415;-77
2023/04/06 05:30:07;;;;;;;14.07;9.27;;;;;;;0.51;100.00;96386.06;6235811;23;20431;-77
2023/04/06 05:32:39;;;;;;;15.18;9.15;;;;;;;0.51;100.00;96386.06;6210363;23;20050;-76
2023/04/06 05:35:05;;;;;;;15.97;8.70;;;;;;;0.85;100.00;96381.38;6185907;23;20104;-76
2023/04/06 05:37:31;;;;;;;19.37;8.37;;;;;;;0.82;100.00;96384.97;6186093;23;20361;-77
2023/04/06 05:40:02;;;;;;;19.87;9.10;;;;;;;0.66;100.00;96392.84;6186540;23;20412;-77
2023/04/06 05:42:39;;;;;;;13.97;8.40;;;;;;;0.85;100.00;96387.38;6184972;23;20451;-76
2023/04/06 05:45:07;;;;;;;16.70;8.63;;;;;;;0.97;100.00;96388.34;6210688;23;20489;-76
2023/04/06 05:47:39;;;;;;;13.47;8.23;;;;;;;1.46;100.00;96387.00;6185133;23;20423;-77
2023/04/06 05:50:18;;;;;;;16.80;8.00;;;;;;;1.45;100.00;96391.34;6220256;23;20432;-76
2023/04/06 05:52:46;;;;;;;19.00;8.30;;;;;;;1.44;100.00;96389.66;6207640;23;20038;-76
2023/04/06 05:55:20;;;;;;;16.13;8.43;;;;;;;1.67;100.00;96397.72;6235584;23;20435;-77
2023/04/06 05:57:52;;;;;;;14.83;9.00;;;;;;;1.94;100.00;96395.06;6234776;23;20503;-77
2023/04/06 06:00:22;;;;;;;17.77;8.40;;;;;;;2.20;100.00;96395.91;6185608;23;20416;-77
2023/04/06 06:02:59;;;;;;;13.00;7.40;;;;;;;1.93;100.00;96383.03;6235425;23;20412;-77
2023/04/06 06:05:28;;;;;;;15.10;8.73;;;;;;;2.48;100.00;96392.25;6235640;23;20949;-77
2023/04/06 06:07:58;;;;;;;14.83;7.83;;;;;;;2.73;100.00;96394.81;6185025;23;20455;-77
2023/04/06 06:10:23;;;;;;;12.50;7.93;;;;;;;2.96;100.00;96390.63;6184707;23;20424;-77
2023/04/06 06:12:49;;;;;;;15.47;8.33;;;;;;;3.26;100.00;96386.78;6208775;23;20012;-77
2023/04/06 06:15:16;;;;;;;17.90;8.47;;;;;;;3.29;100.00;96391.75;6210686;23;20036;-77
2023/04/06 06:17:45;;;;;;;14.33;8.50;;;;;;;3.28;100.00;96395.28;6210252;23;20474;-77
2023/04/06 06:20:13;;;;;;;20.17;8.20;;;;;;;3.70;100.00;96393.94;6209325;23;20408;-77
2023/04/06 06:22:40;;;;;;;19.13;8.97;;;;;;;4.03;100.00;96392.38;6209929;23;20066;-77
2023/04/06 06:25:09;;;;;;;16.70;10.50;;;;;;;3.99;100.00;96385.72;6210149;23;20415;-77
2023/04/06 06:27:39;;;;;;;13.50;7.77;;;;;;;4.21;100.00;96384.94;6185232;23;20415;-76
2023/04/06 06:30:06;;;;;;;15.33;8.30;;;;;;;4.97;100.00;96378.19;6212635;23;20020;-77
2023/04/06 06:32:32;;;;;;;12.53;7.73;;;;;;;4.58;100.00;96382.94;6208687;23;20930;-77
2023/04/06 06:34:59;;;;;;;16.50;8.37;;;;;;;4.51;100.00;96391.38;6210220;23;20384;-77
2023/04/06 06:37:24;;;;;;;13.87;8.40;;;;;;;4.64;100.00;96387.69;6209673;23;20422;-77
2023/04/06 06:39:50;;;;;;;13.03;8.63;;;;;;;5.12;100.00;96381.34;6210183;23;20015;-77
2023/04/06 06:42:18;;;;;;;14.50;8.83;;;;;;;4.95;100.00;96378.28;6183908;23;20466;-77
2023/04/06 06:45:00;;;;;;;17.37;8.87;;;;;;;5.37;100.00;96383.66;6209308;23;20436;-78
2023/04/06 06:47:26;;;;;;;19.23;10.50;;;;;;;6.23;98.03;96381.84;6210186;23;20408;-77
2023/04/06 06:49:52;;;;;;;17.37;9.43;;;;;;;6.41;98.84;96383.88;6182890;23;20106;-77
2023/04/06 06:52:18;;;;;;;14.17;8.73;;;;;;;6.33;95.59;96384.50;6209668;23;20012;-78
2023/04/06 06:54:44;;;;;;;14.20;8.60;;;;;;;7.13;92.40;96378.50;6211801;23;20023;-77
2023/04/06 06:57:12;;;;;;;16.80;9.20;;;;;;;7.00;91.95;96385.75;6183756;23;20099;-77
2023/04/06 06:59:45;;;;;;;14.40;8.60;;;;;;;7.35;89.08;96387.09;6184846;23;20492;-77
2023/04/06 07:02:12;;;;;;;16.57;7.73;;;;;;;6.51;89.89;96392.59;6209497;23;20023;-77
2023/04/06 07:04:39;;;;;;;13.77;9.13;;;;;;;6.51;92.90;96390.00;6209656;23;20391;-77
2023/04/06 07:07:05;;;;;;;12.67;8.73;;;;;;;7.50;88.15;96391.78;6184034;23;20017;-77
2023/04/06 07:09:31;;;;;;;13.80;8.50;;;;;;;7.52;88.97;96394.28;6183981;23;20118;-77
2023/04/06 07:12:13;;;;;;;13.50;8.27;;;;;;;7.55;85.13;96386.97;6182881;23;20016;-77
2023/04/06 07:14:45;;;;;;;13.70;8.77;;;;;;;7.67;85.96;96389.44;6185453;23;20344;-77
2023/04/06 07:17:12;;;;;;;14.20;8.60;;;;;;;8.74;77.80;96384.88;6235199;23;20020;-77
2023/04/06 07:19:39;;;;;;;13.20;8.50;;;;;;;9.19;74.75;96381.50;6184327;23;20448;-77
2023/04/06 07:22:11;;;;;;;13.50;8.50;;;;;;;9.32;70.74;96383.75;6233672;23;20020;-77
2023/04/06 07:24:37;;;;;;;13.68;9.10;;;;;;;8.64;73.67;96389.31;6184073;23;20028;-77
2023/04/06 07:27:03;;;;;;;14.90;8.33;;;;;;;9.60;68.86;96381.94;6209444;23;20061;-77
2023/04/06 07:29:32;;;;;;;12.37;8.20;;;;;;;10.17;66.93;96378.97;6209303;23;20797;-78
2023/04/06 07:31:58;;;;;;;15.93;9.43;;;;;;;10.99;59.05;96375.84;6184010;23;20019;-78
2023/04/06 07:34:26;;;;;;;11.40;7.73;;;;;;;10.58;58.15;96386.16;6184357;23;20008;-77
2023/04/06 07:36:53;;;;;;;13.53;7.80;;;;;;;11.17;55.33;96383.66;6184115;23;20016;-77
2023/04/06 07:39:20;;;;;;;12.43;7.40;;;;;;;11.36;54.50;96384.34;6184405;23;20043;-77
2023/04/06 07:41:49;;;;;;;16.80;8.33;;;;;;;11.41;52.04;96382.91;6208130;23;20005;-78
2023/04/06 07:44:15;;;;;;;12.03;8.20;;;;;;;11.28;52.12;96387.81;6234335;23;20117;-77
2023/04/06 07:46:42;;;;;;;14.60;8.83;;;;;;;11.08;53.24;96387.22;6184718;23;20019;-77
2023/04/06 07:49:08;;;;;;;15.90;7.93;;;;;;;11.77;46.59;96385.28;6183621;23;20103;-78
2023/04/06 07:51:39;;;;;;;12.17;7.87;;;;;;;11.95;46.16;96380.72;6232756;23;20497;-77
2023/04/06 07:54:05;;;;;;;12.23;7.87;;;;;;;12.99;43.33;96376.44;6234220;23;20016;-77
2023/04/06 07:56:31;;;;;;;12.50;8.07;;;;;;;13.83;42.15;96374.03;6183578;23;20099;-77
2023/04/06 07:58:58;;;;;;;12.20;8.40;;;;;;;13.38;42.09;96379.09;6233449;23;20099;-77
2023/04/06 08:01:27;;;;;;;13.73;9.03;;;;;;;13.30;42.85;96384.41;6183263;23;20019;-78
2023/04/06 08:03:58;;;;;;;12.10;8.37;;;;;;;14.45;40.70;96378.31;6209581;23;20019;-77
2023/04/06 08:06:24;;;;;;;14.67;9.07;;;;;;;14.17;41.38;96381.53;6184079;23;20016;-77
2023/04/06 08:08:50;;;;;;;19.80;10.93;;;;;;;15.02;40.78;96377.75;6182742;23;20023;-78
2023/04/06 08:11:26;;;;;;;15.50;9.70;;;;;;;15.33;39.81;96378.38;6182795;23;20013;-77
2023/04/06 08:13:55;;;;;;;14.83;9.73;;;;;;;15.19;39.08;96388.97;6184512;23;20019;-78
2023/04/06 08:16:21;;;;;;;14.40;9.07;;;;;;;14.50;40.81;96382.09;6211428;23;20492;-77
2023/04/06 08:19:07;;;;;;;12.17;8.40;;;;;;;14.90;38.81;96395.94;6211648;23;20012;-77
2023/04/06 08:21:34;;;;;;;13.17;8.47;;;;;;;14.45;40.12;96388.91;6185828;23;20091;-77
2023/04/06 08:24:00;;;;;;;12.30;8.57;;;;;;;15.12;42.85;96382.78;6211675;23;20023;-78
2023/04/06 08:26:26;;;;;;;14.20;9.47;;;;;;;16.12;40.93;96380.25;6237002;23;20012;-77
2023/04/06 08:28:55;;;;;;;16.17;9.10;;;;;;;17.16;39.31;96376.94;6184151;23;20021;-78
2023/04/06 08:31:24;;;;;;;12.15;8.88;;;;;;;17.00;38.33;96378.09;6209369;23;20115;-78
2023/04/06 08:33:51;;;;;;;12.88;8.35;;;;;;;17.22;35.95;96373.47;6185590;23;20012;-78
2023/04/06 08:36:20;;;;;;;12.05;8.70;;;;;;;16.87;35.05;96373.50;6185421;23;20020;-76
2023/04/06 08:38:45;;;;;;;11.27;7.82;;;;;;;16.43;35.92;96374.59;6186511;23;20099;-76
2023/04/06 08:41:13;;;;;;;11.32;8.88;;;;;;;16.75;36.66;96377.72;6209895;23;20032;-76
2023/04/06 08:44:00;;;;;;;11.73;8.70;;;;;;;16.47;33.92;96370.56;6209815;23;20040;-76
2023/04/06 08:46:30;;;;;;;12.82;9.07;;;;;;;16.43;35.22;96371.97;6186400;23;20016;-76
2023/04/06 08:49:02;;;;;;;11.57;7.90;;;;;;;17.17;34.63;96370.63;6186467;23;20012;-77
2023/04/06 08:51:30;;;;;;;12.18;7.72;;;;;;;17.66;33.73;96365.06;6234146;23;20425;-76
2023/04/06 08:53:59;;;;;;;10.70;8.32;;;;;;;16.85;34.12;96374.72;6211072;23;20332;-76
2023/04/06 08:56:26;;;;;;;12.75;9.23;;;;;;;15.77;34.75;96374.81;6210562;23;20036;-77
2023/04/06 08:58:53;;;;;;;11.57;8.25;;;;;;;15.48;34.46;96378.34;6186195;23;20575;-77
2023/04/06 09:01:26;;;;;;;11.00;8.02;;;;;;;16.57;32.67;96362.25;6210935;23;20154;-76
2023/04/06 09:03:55;;;;;;;;;;;;;;;17.04;32.91;96374.00;6212173;23;20020;-77
2023/04/06 09:06:21;;;;;;;10.35;7.88;;;;;;;17.52;31.31;96357.25;6212753;23;19982;-76
2023/04/06 09:08:46;;;;;;;11.50;8.35;;;;;;;17.34;30.79;96355.16;6211045;23;20072;-77
2023/04/06 09:11:13;;;;;;;10.93;7.63;;;;;;;15.98;31.71;96362.56;6210711;23;20019;-77
2023/04/06 09:13:50;;;;;;;13.30;9.27;;;;;;;17.20;32.00;96360.41;6185378;23;20016;-76
2023/04/06 09:16:17;;;;;;;11.90;8.18;;;;;;;18.08;31.10;96365.81;6187018;23;20023;-77
2023/04/06 09:18:43;;;;;;;14.07;8.30;;;;;;;17.79;31.72;96358.16;6185012;23;20020;-76
2023/04/06 09:21:10;;;;;;;10.75;7.40;;;;;;;17.60;28.56;96362.38;6184788;23;20017;-77
2023/04/06 09:23:36;;;;;;;11.30;7.90;;;;;;;16.78;31.73;96364.06;6210891;23;20451;-77
2023/04/06 09:26:15;;;;;;;11.73;8.13;;;;;;;17.03;31.70;96366.22;6235039;23;20053;-76
2023/04/06 09:28:47;;;;;;;11.75;7.82;;;;;;;17.51;31.00;96360.94;6210268;23;20028;-77
2023/04/06 09:31:22;;;;;;;10.35;7.10;;;;;;;17.85;30.37;96360.03;6184591;23;20022;-77
2023/04/06 09:33:47;;;;;;;12.15;7.57;;;;;;;17.50;30.71;96359.28;6211310;23;20048;-77
2023/04/06 09:36:15;;;;;;;11.93;8.30;;;;;;;17.54;30.90;96357.84;6185156;23;20071;-76
2023/04/06 09:39:02;;;;;;;11.52;8.75;;;;;;;17.84;31.11;96355.72;6210759;23;20013;-76
2023/04/06 09:41:51;;;;;;;11.32;7.55;;;;;;;16.36;32.49;96360.44;6210247;23;20507;-76
2023/04/06 09:44:25;;;;;;;11.23;8.20;;;;;;;16.12;32.45;96359.03;6210009;23;20020;-76
2023/04/06 09:47:02;;;;;;;12.35;8.65;;;;;;;16.15;32.28;96358.63;6185781;23;20016;-77
2023/04/06 09:49:30;;;;;;;10.20;7.93;;;;;;;17.50;31.31;96351.28;6210686;23;20572;-77
2023/04/06 09:52:01;;;;;;;12.18;8.32;;;;;;;17.99;31.46;96351.03;6211145;23;20522;-77
2023/04/06 09:54:30;;;;;;;11.10;7.88;;;;;;;18.39;30.42;96345.75;6211348;23;20013;-77
2023/04/06 09:57:14;;;;;;;11.63;8.75;;;;;;;18.63;30.81;96349.59;6209189;23;20020;-77
2023/04/06 09:59:56;;;;;;;13.15;8.32;;;;;;;18.50;30.44;96344.28;6184931;23;20080;-76
2023/04/06 10:02:46;;;;;;;10.75;8.32;;;;;;;17.56;31.61;96350.50;6184046;23;20089;-76
2023/04/06 10:05:22;;;;;;;11.75;8.35;;;;;;;18.69;29.35;96347.97;6166738;23;20016;-77
2023/04/06 10:07:53;;;;;;;12.60;8.52;;;;;;;16.91;30.43;96350.03;6209582;23;20020;-77
2023/04/06 10:10:21;;;;;;;10.55;8.32;;;;;;;16.32;31.30;96353.06;6211203;23;20012;-77
2023/04/06 10:12:48;;;;;;;12.82;9.15;;;;;;;16.40;31.78;96348.44;6184333;23;20023;-77
2023/04/06 10:15:14;;;;;;;11.80;7.97;;;;;;;17.33;31.26;96342.84;6235128;23;20023;-77
2023/04/06 10:17:40;;;;;;;13.30;9.98;;;;;;;16.22;31.60;96348.91;6209937;23;20005;-77
2023/04/06 10:20:16;;;;;;;10.98;8.88;;;;;;;17.47;30.71;96341.91;6185616;23;20016;-76
2023/04/06 10:22:53;;;;;;;10.88;7.47;;;;;;;18.38;30.18;96339.59;6234677;23;20016;-77
2023/04/06 10:25:29;;;;;;;11.25;8.23;;;;;;;17.70;30.85;96340.72;6210591;23;20343;-77
2023/04/06 10:28:11;;;;;;;11.27;7.80;;;;;;;17.32;31.52;96338.56;6210389;23;20046;-77
2023/04/06 10:31:12;;;;;;;11.13;8.27;;;;;;;18.12;31.58;96339.59;6208591;23;20019;-78
2023/04/06 10:33:38;;;;;;;11.63;8.75;;;;;;;16.86;30.87;96347.13;6118449;23;20041;-77
2023/04/06 10:36:27;;;;;;;10.73;8.18;;;;;;;17.25;31.78;96338.53;6158398;23;20017;-77
2023/04/06 10:39:06;;;;;;;12.55;8.25;;;;;;;16.95;31.53;96348.63;6211472;23;20087;-77
2023/04/06 10:41:47;;;;;;;12.65;8.35;;;;;;;17.13;31.18;96345.44;6183772;23;20009;-78
2023/04/06 10:44:26;;;;;;;10.68;7.90;;;;;;;17.89;30.14;96337.31;6209299;23;20012;-77
2023/04/06 10:46:56;;;;;;;9.60;7.07;;;;;;;17.95;29.14;96339.16;6184555;23;20021;-78
2023/04/06 10:49:22;;;;;;;10.82;7.45;;;;;;;17.66;30.33;96327.81;6209407;23;20023;-77
2023/04/06 10:51:58;;;;;;;11.73;8.02;;;;;;;17.78;30.82;96332.59;6209580;23;20974;-77
2023/04/06 10:54:28;;;;;;;11.57;8.15;;;;;;;17.63;30.08;96335.38;6183218;23;20040;-77
2023/04/06 10:56:53;;;;;;;10.68;7.97;;;;;;;17.39;30.29;96329.59;6209044;23;20288;-77
2023/04/06 10:59:24;;;;;;;11.07;8.02;;;;;;;15.91;31.12;96330.69;6184468;23;20012;-77
2023/04/06 11:01:50;;;;;;;12.70;9.05;;;;;;;15.94;31.41;96324.19;6209610;23;20062;-77
2023/04/06 11:04:21;;;;;;;11.07;8.07;;;;;;;16.06;31.21;96327.13;6209838;23;20012;-77
2023/04/06 11:06:48;;;;;;;12.05;7.63;;;;;;;16.65;30.31;96321.44;6185155;23;20028;-77
2023/04/06 11:09:28;;;;;;;11.05;7.95;;;;;;;16.41;30.92;96328.03;6208381;23;20083;-77
2023/04/06 11:11:56;;;;;;;12.15;8.57;;;;;;;16.57;31.99;96329.56;6208591;23;20016;-77
2023/04/06 11:14:22;;;;;;;10.40;7.80;;;;;;;16.12;31.86;96326.38;6211404;23;20067;-77
2023/04/06 11:16:49;;;;;;;11.20;8.10;;;;;;;16.12;31.11;96316.56;6185460;23;20845;-77
2023/04/06 11:19:16;;;;;;;9.95;7.35;;;;;;;16.78;32.92;96321.56;6208794;23;20511;-78
2023/04/06 11:21:53;;;;;;;11.43;7.95;;;;;;;15.94;33.07;96316.22;6210943;23;20000;-78
2023/04/06 11:24:25;;;;;;;13.90;8.23;;;;;;;16.84;32.15;96317.31;6210247;23;20013;-79
2023/04/06 11:26:58;;;;;;;10.75;7.75;;;;;;;17.42;31.81;96301.78;6185340;23;20017;-78
2023/04/06 11:29:26;;;;;;;13.27;8.75;;;;;;;17.20;30.98;96304.59;6210118;23;20318;-78
2023/04/06 11:31:57;;;;;;;10.60;7.53;;;;;;;18.31;30.85;96301.50;6184427;23;20007;-79
2023/04/06 11:34:24;;;;;;;11.15;8.20;;;;;;;19.32;29.91;96300.25;6184473;23;20453;-79
2023/04/06 11:36:59;;;;;;;9.88;6.65;;;;;;;18.06;29.99;96308.47;6184640;23;20012;-78